sensor_id;sensor_type;location;lat;lon;timestamp;pressure;altitude;pressure_sealevel;temperature;humidity
55914;BME280;58179;48.776;9.124;2023-11-19T00:00:07;97290.81;;;6.26;100.00
55914;BME280;58179;48.776;9.124;2023-11-19T00:02:37;97281.47;;;6.30;100.00
55914;BME280;58179;48.776;9.124;2023-11-19T00:05:05;97272.56;;;6.31;100.00
55914;BME280;58179;48.776;9.124;2023-11-19T00:07:35;97260.31;;;6.37;100.00
55914;BME280;58179;48.776;9.124;2023-11-19T00:10:01;97258.81;;;6.41;100.00
55914;BME280;58179;48.776;9.124;2023-11-19T00:12:36;97255.97;;;6.42;100.00
55914;BME280;58179;48.776;9.124;2023-11-19T00:15:03;97258.16;;;6.45;100.00
55914;BME280;58179;48.776;9.124;2023-11-19T00:17:29;97245.69;;;6.52;100.00
55914;BME280;58179;48.776;9.124;2023-11-19T00:19:56;97254.16;;;6.54;100.00
55914;BME280;58179;48.776;9.124;2023-11-19T00:22:24;97234.50;;;6.57;100.00
55914;BME280;58179;48.776;9.124;2023-11-19T00:24:51;97241.94;;;6.60;100.00
55914;BME280;58179;48.776;9.124;2023-11-19T00:27:18;97232.22;;;6.60;100.00
55914;BME280;58179;48.776;9.124;2023-11-19T00:29:44;97242.63;;;6.67;100.00
55914;BME280;58179;48.776;9.124;2023-11-19T00:32:11;97251.63;;;6.71;100.00
55914;BME280;58179;48.776;9.124;2023-11-19T00:34:37;97238.25;;;6.73;100.00
55914;BME280;58179;48.776;9.124;2023-11-19T00:37:03;97228.88;;;6.77;100.00
55914;BME280;58179;48.776;9.124;2023-11-19T00:39:31;97230.25;;;6.79;100.00
55914;BME280;58179;48.776;9.124;2023-11-19T00:41:57;97219.28;;;6.82;100.00
55914;BME280;58179;48.776;9.124;2023-11-19T00:44:23;97231.16;;;6.85;100.00
55914;BME280;58179;48.776;9.124;2023-11-19T00:46:49;97216.97;;;6.86;100.00
55914;BME280;58179;48.776;9.124;2023-11-19T00:49:15;97212.28;;;6.88;100.00
55914;BME280;58179;48.776;9.124;2023-11-19T00:51:41;97212.84;;;6.90;100.00
55914;BME280;58179;48.776;9.124;2023-11-19T00:54:08;97210.00;;;6.91;100.00
55914;BME280;58179;48.776;9.124;2023-11-19T00:56:35;97208.72;;;6.94;100.00
55914;BME280;58179;48.776;9.124;2023-11-19T00:59:01;97205.06;;;6.95;100.00
55914;BME280;58179;48.776;9.124;2023-11-19T01:01:28;97211.94;;;6.96;100.00
55914;BME280;58179;48.776;9.124;2023-11-19T01:03:54;97201.72;;;6.99;100.00
55914;BME280;58179;48.776;9.124;2023-11-19T01:06:27;97202.53;;;7.00;100.00
55914;BME280;58179;48.776;9.124;2023-11-19T01:08:54;97195.19;;;7.02;100.00
55914;BME280;58179;48.776;9.124;2023-11-19T01:11:21;97207.91;;;7.05;100.00
55914;BME280;58179;48.776;9.124;2023-11-19T01:13:49;97198.50;;;7.09;100.00
55914;BME280;58179;48.776;9.124;2023-11-19T01:16:15;97198.28;;;7.11;100.00
55914;BME280;58179;48.776;9.124;2023-11-19T01:18:42;97198.59;;;7.14;100.00
55914;BME280;58179;48.776;9.124;2023-11-19T01:21:08;97204.66;;;7.15;100.00
55914;BME280;58179;48.776;9.124;2023-11-19T01:23:34;97194.69;;;7.17;100.00
55914;BME280;58179;48.776;9.124;2023-11-19T01:26:00;97190.59;;;7.21;100.00
55914;BME280;58179;48.776;9.124;2023-11-19T01:28:26;97191.38;;;7.21;100.00
55914;BME280;58179;48.776;9.124;2023-11-19T01:30:54;97180.38;;;7.24;100.00
55914;BME280;58179;48.776;9.124;2023-11-19T01:33:20;97185.19;;;7.27;100.00
55914;BME280;58179;48.776;9.124;2023-11-19T01:35:47;97180.81;;;7.33;100.00
55914;BME280;58179;48.776;9.124;2023-11-19T01:38:13;97178.75;;;7.35;100.00
55914;BME280;58179;48.776;9.124;2023-11-19T01:40:40;97169.25;;;7.34;100.00
55914;BME280;58179;48.776;9.124;2023-11-19T01:43:06;97171.38;;;7.37;100.00
55914;BME280;58179;48.776;9.124;2023-11-19T01:45:34;97176.41;;;7.38;100.00
55914;BME280;58179;48.776;9.124;2023-11-19T01:48:03;97178.03;;;7.39;100.00
55914;BME280;58179;48.776;9.124;2023-11-19T01:50:33;97179.16;;;7.44;100.00
55914;BME280;58179;48.776;9.124;2023-11-19T01:53:00;97173.09;;;7.43;100.00
55914;BME280;58179;48.776;9.124;2023-11-19T01:55:27;97165.75;;;7.45;100.00
55914;BME280;58179;48.776;9.124;2023-11-19T01:57:57;97164.47;;;7.48;100.00
55914;BME280;58179;48.776;9.124;2023-11-19T02:00:25;97178.22;;;7.50;100.00
55914;BME280;58179;48.776;9.124;2023-11-19T02:02:52;97165.84;;;7.50;100.00
55914;BME280;58179;48.776;9.124;2023-11-19T02:05:21;97159.28;;;7.53;100.00
55914;BME280;58179;48.776;9.124;2023-11-19T02:07:49;97163.63;;;7.59;100.00
55914;BME280;58179;48.776;9.124;2023-11-19T02:10:16;97159.72;;;7.61;100.00
55914;BME280;58179;48.776;9.124;2023-11-19T02:12:46;97163.72;;;7.64;100.00
55914;BME280;58179;48.776;9.124;2023-11-19T02:15:12;97158.44;;;7.64;100.00
55914;BME280;58179;48.776;9.124;2023-11-19T02:17:38;97155.81;;;7.64;100.00
55914;BME280;58179;48.776;9.124;2023-11-19T02:20:05;97150.53;;;7.64;100.00
55914;BME280;58179;48.776;9.124;2023-11-19T02:22:38;97141.59;;;7.65;100.00
55914;BME280;58179;48.776;9.124;2023-11-19T02:25:08;97136.34;;;7.65;100.00
55914;BME280;58179;48.776;9.124;2023-11-19T02:27:47;97146.06;;;7.64;100.00
55914;BME280;58179;48.776;9.124;2023-11-19T02:30:14;97145.03;;;7.65;100.00
55914;BME280;58179;48.776;9.124;2023-11-19T02:32:41;97145.56;;;7.67;100.00
55914;BME280;58179;48.776;9.124;2023-11-19T02:35:08;97142.47;;;7.70;100.00
55914;BME280;58179;48.776;9.124;2023-11-19T02:37:34;97141.44;;;7.71;100.00
55914;BME280;58179;48.776;9.124;2023-11-19T02:40:01;97145.69;;;7.72;100.00
55914;BME280;58179;48.776;9.124;2023-11-19T02:42:29;97145.44;;;7.74;100.00
55914;BME280;58179;48.776;9.124;2023-11-19T02:44:56;97147.81;;;7.75;100.00
55914;BME280;58179;48.776;9.124;2023-11-19T02:47:22;97146.00;;;7.76;100.00
55914;BME280;58179;48.776;9.124;2023-11-19T02:49:50;97148.41;;;7.77;100.00
55914;BME280;58179;48.776;9.124;2023-11-19T02:52:18;97147.13;;;7.80;100.00
55914;BME280;58179;48.776;9.124;2023-11-19T02:54:44;97154.53;;;7.83;100.00
55914;BME280;58179;48.776;9.124;2023-11-19T02:57:11;97151.66;;;7.85;100.00
55914;BME280;58179;48.776;9.124;2023-11-19T02:59:39;97145.38;;;7.86;100.00
55914;BME280;58179;48.776;9.124;2023-11-19T03:02:09;97147.78;;;7.87;100.00
55914;BME280;58179;48.776;9.124;2023-11-19T03:04:38;97148.56;;;7.88;100.00
55914;BME280;58179;48.776;9.124;2023-11-19T03:07:08;97147.53;;;7.89;100.00
55914;BME280;58179;48.776;9.124;2023-11-19T03:09:35;97152.53;;;7.90;100.00
55914;BME280;58179;48.776;9.124;2023-11-19T03:12:01;97143.59;;;7.91;100.00
55914;BME280;58179;48.776;9.124;2023-11-19T03:14:27;97157.34;;;7.93;100.00
55914;BME280;58179;48.776;9.124;2023-11-19T03:16:53;97169.25;;;7.96;100.00
55914;BME280;58179;48.776;9.124;2023-11-19T03:19:21;97162.16;;;7.96;100.00
55914;BME280;58179;48.776;9.124;2023-11-19T03:21:47;97163.25;;;8.00;100.00
55914;BME280;58179;48.776;9.124;2023-11-19T03:24:14;97157.75;;;8.02;100.00
55914;BME280;58179;48.776;9.124;2023-11-19T03:26:41;97158.56;;;8.02;100.00
55914;BME280;58179;48.776;9.124;2023-11-19T03:29:08;97160.69;;;8.05;100.00
55914;BME280;58179;48.776;9.124;2023-11-19T03:31:35;97148.06;;;8.07;100.00
55914;BME280;58179;48.776;9.124;2023-11-19T03:34:01;97150.53;;;8.14;100.00
55914;BME280;58179;48.776;9.124;2023-11-19T03:36:33;97151.34;;;8.14;100.00
55914;BME280;58179;48.776;9.124;2023-11-19T03:38:59;97143.19;;;8.16;100.00
55914;BME280;58179;48.776;9.124;2023-11-19T03:41:26;97153.50;;;8.18;100.00
55914;BME280;58179;48.776;9.124;2023-11-19T03:43:52;97149.03;;;8.18;100.00
55914;BME280;58179;48.776;9.124;2023-11-19T03:46:19;97147.44;;;8.17;100.00
55914;BME280;58179;48.776;9.124;2023-11-19T03:48:45;97147.19;;;8.19;100.00
55914;BME280;58179;48.776;9.124;2023-11-19T03:51:12;97140.88;;;8.20;100.00
55914;BME280;58179;48.776;9.124;2023-11-19T03:53:42;97155.47;;;8.27;100.00
55914;BME280;58179;48.776;9.124;2023-11-19T03:56:09;97149.16;;;8.28;100.00
55914;BME280;58179;48.776;9.124;2023-11-19T03:58:36;97135.44;;;8.26;100.00
55914;BME280;58179;48.776;9.124;2023-11-19T04:01:02;97136.25;;;8.27;100.00
55914;BME280;58179;48.776;9.124;2023-11-19T04:03:28;97143.38;;;8.26;100.00
55914;BME280;58179;48.776;9.124;2023-11-19T04:05:54;97129.09;;;8.27;100.00
55914;BME280;58179;48.776;9.124;2023-11-19T04:08:20;97125.00;;;8.31;100.00
55914;BME280;58179;48.776;9.124;2023-11-19T04:10:48;97133.72;;;8.32;100.00
55914;BME280;58179;48.776;9.124;2023-11-19T04:13:14;97138.19;;;8.31;100.00
55914;BME280;58179;48.776;9.124;2023-11-19T04:15:40;97130.47;;;8.30;100.00
55914;BME280;58179;48.776;9.124;2023-11-19T04:18:07;97132.31;;;8.29;100.00
55914;BME280;58179;48.776;9.124;2023-11-19T04:20:33;97126.84;;;8.31;100.00
55914;BME280;58179;48.776;9.124;2023-11-19T04:22:59;97140.03;;;8.31;100.00
55914;BME280;58179;48.776;9.124;2023-11-19T04:25:26;97146.09;;;8.31;100.00
55914;BME280;58179;48.776;9.124;2023-11-19T04:27:54;97144.81;;;8.34;100.00
55914;BME280;58179;48.776;9.124;2023-11-19T04:30:20;97141.91;;;8.35;100.00
55914;BME280;58179;48.776;9.124;2023-11-19T04:32:47;97137.44;;;8.36;100.00
55914;BME280;58179;48.776;9.124;2023-11-19T04:35:14;97138.25;;;8.36;100.00
55914;BME280;58179;48.776;9.124;2023-11-19T04:37:42;97128.25;;;8.38;100.00
55914;BME280;58179;48.776;9.124;2023-11-19T04:40:08;97132.72;;;8.38;100.00
55914;BME280;58179;48.776;9.124;2023-11-19T04:42:35;97152.78;;;8.39;100.00
55914;BME280;58179;48.776;9.124;2023-11-19T04:45:03;97144.16;;;8.43;100.00
55914;BME280;58179;48.776;9.124;2023-11-19T04:47:32;97152.84;;;8.44;100.00
55914;BME280;58179;48.776;9.124;2023-11-19T04:49:58;97149.75;;;8.47;100.00
55914;BME280;58179;48.776;9.124;2023-11-19T04:52:24;97147.91;;;8.47;100.00
55914;BME280;58179;48.776;9.124;2023-11-19T04:54:51;97151.06;;;8.49;100.00
55914;BME280;58179;48.776;9.124;2023-11-19T04:57:17;97151.88;;;8.50;100.00
55914;BME280;58179;48.776;9.124;2023-11-19T04:59:43;97151.06;;;8.49;100.00
55914;BME280;58179;48.776;9.124;2023-11-19T05:02:11;97145.66;;;8.56;100.00
55914;BME280;58179;48.776;9.124;2023-11-19T05:04:37;97142.50;;;8.59;100.00
55914;BME280;58179;48.776;9.124;2023-11-19T05:07:08;97141.22;;;8.62;100.00
55914;BME280;58179;48.776;9.124;2023-11-19T05:09:34;97142.03;;;8.62;100.00
55914;BME280;58179;48.776;9.124;2023-11-19T05:12:01;97138.59;;;8.62;100.00
55914;BME280;58179;48.776;9.124;2023-11-19T05:14:27;97138.09;;;8.65;100.00
55914;BME280;58179;48.776;9.124;2023-11-19T05:16:53;97147.38;;;8.67;100.00
55914;BME280;58179;48.776;9.124;2023-11-19T05:19:21;97150.56;;;8.69;100.00
55914;BME280;58179;48.776;9.124;2023-11-19T05:21:47;97142.41;;;8.71;100.00
55914;BME280;58179;48.776;9.124;2023-11-19T05:24:13;97147.50;;;8.77;100.00
55914;BME280;58179;48.776;9.124;2023-11-19T05:26:40;97145.66;;;8.78;100.00
55914;BME280;58179;48.776;9.124;2023-11-19T05:29:06;97150.16;;;8.77;100.00
55914;BME280;58179;48.776;9.124;2023-11-19T05:31:32;97162.78;;;8.75;100.00
55914;BME280;58179;48.776;9.124;2023-11-19T05:33:58;97163.09;;;8.79;100.00
55914;BME280;58179;48.776;9.124;2023-11-19T05:36:26;97160.19;;;8.80;100.00
55914;BME280;58179;48.776;9.124;2023-11-19T05:38:54;97155.25;;;8.84;100.00
55914;BME280;58179;48.776;9.124;2023-11-19T05:41:21;97162.91;;;8.85;100.00
55914;BME280;58179;48.776;9.124;2023-11-19T05:43:47;97160.81;;;8.87;100.00
55914;BME280;58179;48.776;9.124;2023-11-19T05:46:13;97163.44;;;8.87;100.00
55914;BME280;58179;48.776;9.124;2023-11-19T05:48:39;97164.00;;;8.89;100.00
55914;BME280;58179;48.776;9.124;2023-11-19T05:51:05;97154.25;;;8.90;100.00
55914;BME280;58179;48.776;9.124;2023-11-19T05:53:33;97152.41;;;8.90;100.00
55914;BME280;58179;48.776;9.124;2023-11-19T05:56:00;97148.25;;;8.95;100.00
55914;BME280;58179;48.776;9.124;2023-11-19T05:58:30;97153.81;;;8.98;100.00
55914;BME280;58179;48.776;9.124;2023-11-19T06:00:56;97141.91;;;8.96;100.00
55914;BME280;58179;48.776;9.124;2023-11-19T06:03:23;97142.47;;;8.98;100.00
55914;BME280;58179;48.776;9.124;2023-11-19T06:05:49;97146.38;;;8.95;100.00
55914;BME280;58179;48.776;9.124;2023-11-19T06:08:16;97149.03;;;8.95;100.00
55914;BME280;58179;48.776;9.124;2023-11-19T06:10:44;97142.97;;;8.95;100.00
55914;BME280;58179;48.776;9.124;2023-11-19T06:13:12;97157.22;;;8.93;100.00
55914;BME280;58179;48.776;9.124;2023-11-19T06:15:41;97156.66;;;8.91;100.00
55914;BME280;58179;48.776;9.124;2023-11-19T06:18:07;97153.22;;;8.91;100.00
55914;BME280;58179;48.776;9.124;2023-11-19T06:20:34;97145.63;;;8.95;100.00
55914;BME280;58179;48.776;9.124;2023-11-19T06:23:00;97155.91;;;8.96;100.00
55914;BME280;58179;48.776;9.124;2023-11-19T06:25:26;97160.38;;;8.96;100.00
55914;BME280;58179;48.776;9.124;2023-11-19T06:27:55;97161.97;;;8.97;100.00
55914;BME280;58179;48.776;9.124;2023-11-19T06:30:22;97166.47;;;8.96;100.00
55914;BME280;58179;48.776;9.124;2023-11-19T06:32:48;97169.09;;;8.96;100.00
55914;BME280;58179;48.776;9.124;2023-11-19T06:35:15;97169.66;;;8.98;100.00
55914;BME280;58179;48.776;9.124;2023-11-19T06:37:41;97172.31;;;8.98;100.00
55914;BME280;58179;48.776;9.124;2023-11-19T06:40:08;97179.97;;;9.00;100.00
55914;BME280;58179;48.776;9.124;2023-11-19T06:42:35;97185.03;;;9.01;100.00
55914;BME280;58179;48.776;9.124;2023-11-19T06:45:03;97186.69;;;9.07;100.00
55914;BME280;58179;48.776;9.124;2023-11-19T06:47:29;97179.56;;;9.08;100.00
55914;BME280;58179;48.776;9.124;2023-11-19T06:49:55;97187.47;;;9.08;100.00
55914;BME280;58179;48.776;9.124;2023-11-19T06:52:22;97180.03;;;9.05;100.00
55914;BME280;58179;48.776;9.124;2023-11-19T06:54:48;97188.75;;;9.05;100.00
55914;BME280;58179;48.776;9.124;2023-11-19T06:57:14;97184.28;;;9.06;100.00
55914;BME280;58179;48.776;9.124;2023-11-19T06:59:40;97193.56;;;9.08;100.00
55914;BME280;58179;48.776;9.124;2023-11-19T07:02:08;97190.91;;;9.08;100.00
55914;BME280;58179;48.776;9.124;2023-11-19T07:04:34;97193.56;;;9.08;100.00
55914;BME280;58179;48.776;9.124;2023-11-19T07:07:01;97193.56;;;9.08;100.00
55914;BME280;58179;48.776;9.124;2023-11-19T07:09:27;97190.91;;;9.08;100.00
55914;BME280;58179;48.776;9.124;2023-11-19T07:11:53;97185.63;;;9.08;100.00
55914;BME280;58179;48.776;9.124;2023-11-19T07:14:19;97178.75;;;9.07;100.00
55914;BME280;58179;48.776;9.124;2023-11-19T07:16:46;97183.81;;;9.09;100.00
55914;BME280;58179;48.776;9.124;2023-11-19T07:19:14;97180.88;;;9.10;100.00
55914;BME280;58179;48.776;9.124;2023-11-19T07:21:41;97179.84;;;9.11;100.00
55914;BME280;58179;48.776;9.124;2023-11-19T07:24:10;97184.88;;;9.13;100.00
55914;BME280;58179;48.776;9.124;2023-11-19T07:26:39;97172.00;;;9.16;100.00
55914;BME280;58179;48.776;9.124;2023-11-19T07:29:06;97182.28;;;9.18;100.00
55914;BME280;58179;48.776;9.124;2023-11-19T07:31:33;97188.38;;;9.18;100.00
55914;BME280;58179;48.776;9.124;2023-11-19T07:33:59;97198.69;;;9.20;100.00
55914;BME280;58179;48.776;9.124;2023-11-19T07:36:27;97201.09;;;9.21;100.00
55914;BME280;58179;48.776;9.124;2023-11-19T07:38:53;97209.59;;;9.23;100.00
55914;BME280;58179;48.776;9.124;2023-11-19T07:41:19;97217.75;;;9.22;100.00
55914;BME280;58179;48.776;9.124;2023-11-19T07:43:46;97223.31;;;9.25;100.00
55914;BME280;58179;48.776;9.124;2023-11-19T07:46:12;97217.00;;;9.26;100.00
55914;BME280;58179;48.776;9.124;2023-11-19T07:48:39;97217.00;;;9.26;100.00
55914;BME280;58179;48.776;9.124;2023-11-19T07:51:05;97212.03;;;9.30;100.00
55914;BME280;58179;48.776;9.124;2023-11-19T07:53:33;97219.44;;;9.33;100.00
55914;BME280;58179;48.776;9.124;2023-11-19T07:55:59;97226.34;;;9.34;100.00
55914;BME280;58179;48.776;9.124;2023-11-19T07:58:25;97225.53;;;9.33;100.00
55914;BME280;58179;48.776;9.124;2023-11-19T08:00:52;97229.78;;;9.35;100.00
55914;BME280;58179;48.776;9.124;2023-11-19T08:03:18;97222.16;;;9.38;100.00
55914;BME280;58179;48.776;9.124;2023-11-19T08:05:50;97212.94;;;9.41;100.00
55914;BME280;58179;48.776;9.124;2023-11-19T08:08:16;97215.09;;;9.44;100.00
55914;BME280;58179;48.776;9.124;2023-11-19T08:10:44;97224.09;;;9.48;100.00
55914;BME280;58179;48.776;9.124;2023-11-19T08:13:10;97213.84;;;9.51;100.00
55914;BME280;58179;48.776;9.124;2023-11-19T08:15:36;97213.63;;;9.53;100.00
55914;BME280;58179;48.776;9.124;2023-11-19T08:18:03;97209.97;;;9.59;100.00
55914;BME280;58179;48.776;9.124;2023-11-19T08:20:29;97205.53;;;9.64;100.00
55914;BME280;58179;48.776;9.124;2023-11-19T08:22:55;97201.88;;;9.70;100.00
55914;BME280;58179;48.776;9.124;2023-11-19T08:25:21;97215.44;;;9.79;100.00
55914;BME280;58179;48.776;9.124;2023-11-19T08:27:48;97221.59;;;9.85;100.00
55914;BME280;58179;48.776;9.124;2023-11-19T08:30:15;97223.78;;;9.93;100.00
55914;BME280;58179;48.776;9.124;2023-11-19T08:32:41;97225.47;;;10.04;100.00
55914;BME280;58179;48.776;9.124;2023-11-19T08:35:08;97221.94;;;10.20;100.00
55914;BME280;58179;48.776;9.124;2023-11-19T08:37:34;97210.09;;;10.28;100.00
55914;BME280;58179;48.776;9.124;2023-11-19T08:40:02;97226.03;;;10.38;100.00
55914;BME280;58179;48.776;9.124;2023-11-19T08:42:30;97229.78;;;10.42;100.00
55914;BME280;58179;48.776;9.124;2023-11-19T08:44:58;97238.31;;;10.49;100.00
55914;BME280;58179;48.776;9.124;2023-11-19T08:47:24;97226.34;;;10.41;100.00
55914;BME280;58179;48.776;9.124;2023-11-19T08:49:51;97233.19;;;10.37;100.00
55914;BME280;58179;48.776;9.124;2023-11-19T08:52:18;97232.91;;;10.34;100.00
55914;BME280;58179;48.776;9.124;2023-11-19T08:54:44;97237.09;;;10.30;100.00
55914;BME280;58179;48.776;9.124;2023-11-19T08:57:10;97237.59;;;10.27;100.00
55914;BME280;58179;48.776;9.124;2023-11-19T08:59:36;97245.03;;;10.30;100.00
55914;BME280;58179;48.776;9.124;2023-11-19T09:02:07;97230.81;;;10.36;100.00
55914;BME280;58179;48.776;9.124;2023-11-19T09:04:34;97232.44;;;10.42;100.00
55914;BME280;58179;48.776;9.124;2023-11-19T09:07:00;97230.72;;;10.63;100.00
55914;BME280;58179;48.776;9.124;2023-11-19T09:09:26;97236.91;;;10.78;100.00
55914;BME280;58179;48.776;9.124;2023-11-19T09:11:52;97239.97;;;11.02;100.00
55914;BME280;58179;48.776;9.124;2023-11-19T09:14:19;97234.97;;;11.11;100.00
55914;BME280;58179;48.776;9.124;2023-11-19T09:16:48;97230.97;;;11.08;100.00
55914;BME280;58179;48.776;9.124;2023-11-19T09:19:15;97229.84;;;10.94;100.00
55914;BME280;58179;48.776;9.124;2023-11-19T09:21:43;97238.00;;;10.82;100.00
55914;BME280;58179;48.776;9.124;2023-11-19T09:24:09;97243.50;;;10.76;100.00
55914;BME280;58179;48.776;9.124;2023-11-19T09:26:36;97247.50;;;10.78;100.00
55914;BME280;58179;48.776;9.124;2023-11-19T09:29:02;97251.75;;;10.79;100.00
55914;BME280;58179;48.776;9.124;2023-11-19T09:31:28;97251.81;;;10.90;100.00
55914;BME280;58179;48.776;9.124;2023-11-19T09:33:54;97258.75;;;11.58;100.00
55914;BME280;58179;48.776;9.124;2023-11-19T09:36:22;97243.78;;;12.34;100.00
55914;BME280;58179;48.776;9.124;2023-11-19T09:38:48;97243.50;;;12.56;100.00
55914;BME280;58179;48.776;9.124;2023-11-19T09:41:15;97243.00;;;12.59;100.00
55914;BME280;58179;48.776;9.124;2023-11-19T09:43:42;97249.63;;;12.52;100.00
55914;BME280;58179;48.776;9.124;2023-11-19T09:46:10;97226.50;;;12.83;100.00
55914;BME280;58179;48.776;9.124;2023-11-19T09:48:39;97242.59;;;13.37;100.00
55914;BME280;58179;48.776;9.124;2023-11-19T09:51:09;97243.56;;;13.56;100.00
55914;BME280;58179;48.776;9.124;2023-11-19T09:53:37;97237.22;;;13.96;100.00
55914;BME280;58179;48.776;9.124;2023-11-19T09:56:04;97242.78;;;14.00;100.00
55914;BME280;58179;48.776;9.124;2023-11-19T09:58:31;97246.31;;;13.85;100.00
55914;BME280;58179;48.776;9.124;2023-11-19T10:00:57;97242.28;;;13.98;100.00
55914;BME280;58179;48.776;9.124;2023-11-19T10:03:33;97239.31;;;14.04;100.00
55914;BME280;58179;48.776;9.124;2023-11-19T10:06:01;97237.50;;;14.28;100.00
55914;BME280;58179;48.776;9.124;2023-11-19T10:08:28;97233.03;;;14.24;100.00
55914;BME280;58179;48.776;9.124;2023-11-19T10:10:56;97234.72;;;14.10;100.00
55914;BME280;58179;48.776;9.124;2023-11-19T10:13:26;97227.16;;;13.88;100.00
55914;BME280;58179;48.776;9.124;2023-11-19T10:15:53;97230.47;;;13.65;100.00
55914;BME280;58179;48.776;9.124;2023-11-19T10:18:25;97227.78;;;13.75;100.00
55914;BME280;58179;48.776;9.124;2023-11-19T10:20:52;97227.44;;;14.59;100.00
55914;BME280;58179;48.776;9.124;2023-11-19T10:23:18;97240.78;;;15.36;100.00
55914;BME280;58179;48.776;9.124;2023-11-19T10:25:44;97240.63;;;16.26;100.00
55914;BME280;58179;48.776;9.124;2023-11-19T10:28:12;97226.28;;;16.73;100.00
55914;BME280;58179;48.776;9.124;2023-11-19T10:30:42;97203.78;;;16.42;100.00
55914;BME280;58179;48.776;9.124;2023-11-19T10:33:09;97196.00;;;15.94;100.00
55914;BME280;58179;48.776;9.124;2023-11-19T10:35:37;97215.56;;;15.47;100.00
55914;BME280;58179;48.776;9.124;2023-11-19T10:38:16;97209.00;;;15.39;100.00
55914;BME280;58179;48.776;9.124;2023-11-19T10:40:42;97217.50;;;15.41;100.00
55914;BME280;58179;48.776;9.124;2023-11-19T10:43:09;97216.88;;;15.92;100.00
55914;BME280;58179;48.776;9.124;2023-11-19T10:45:37;97215.63;;;16.03;100.00
55914;BME280;58179;48.776;9.124;2023-11-19T10:48:05;97209.13;;;15.72;100.00
55914;BME280;58179;48.776;9.124;2023-11-19T10:50:34;97210.66;;;15.78;100.00
55914;BME280;58179;48.776;9.124;2023-11-19T10:53:02;97216.63;;;16.07;100.00
55914;BME280;58179;48.776;9.124;2023-11-19T10:55:30;97220.22;;;16.16;100.00
55914;BME280;58179;48.776;9.124;2023-11-19T10:58:01;97203.84;;;16.04;100.00
55914;BME280;58179;48.776;9.124;2023-11-19T11:00:29;97204.81;;;15.76;100.00
55914;BME280;58179;48.776;9.124;2023-11-19T11:03:01;97201.66;;;15.50;100.00
55914;BME280;58179;48.776;9.124;2023-11-19T11:05:29;97196.56;;;15.30;100.00
55914;BME280;58179;48.776;9.124;2023-11-19T11:07:59;97212.03;;;15.09;100.00
55914;BME280;58179;48.776;9.124;2023-11-19T11:10:26;97214.56;;;14.71;100.00
55914;BME280;58179;48.776;9.124;2023-11-19T11:12:55;97224.16;;;14.39;100.00
55914;BME280;58179;48.776;9.124;2023-11-19T11:15:27;97213.75;;;14.03;100.00
55914;BME280;58179;48.776;9.124;2023-11-19T11:17:57;97214.66;;;13.83;100.00
55914;BME280;58179;48.776;9.124;2023-11-19T11:20:26;97229.66;;;13.69;100.00
55914;BME280;58179;48.776;9.124;2023-11-19T11:23:02;97239.31;;;13.55;100.00
55914;BME280;58179;48.776;9.124;2023-11-19T11:25:41;97228.72;;;13.40;100.00
55914;BME280;58179;48.776;9.124;2023-11-19T11:28:25;97221.31;;;13.32;100.00
55914;BME280;58179;48.776;9.124;2023-11-19T11:31:06;97219.78;;;13.21;100.00
55914;BME280;58179;48.776;9.124;2023-11-19T11:33:48;97229.34;;;13.11;100.00
55914;BME280;58179;48.776;9.124;2023-11-19T11:36:23;97220.31;;;13.12;100.00
55914;BME280;58179;48.776;9.124;2023-11-19T11:38:50;97220.03;;;13.19;100.00
55914;BME280;58179;48.776;9.124;2023-11-19T11:41:20;97209.69;;;13.12;100.00
55914;BME280;58179;48.776;9.124;2023-11-19T11:43:47;97209.44;;;13.14;100.00
55914;BME280;58179;48.776;9.124;2023-11-19T11:49:14;97208.63;;;13.73;100.00
55914;BME280;58179;48.776;9.124;2023-11-19T11:52:03;97207.84;;;14.11;100.00
55914;BME280;58179;48.776;9.124;2023-11-19T11:54:30;97195.91;;;14.43;100.00
55914;BME280;58179;48.776;9.124;2023-11-19T11:57:07;97186.19;;;14.57;100.00
55914;BME280;58179;48.776;9.124;2023-11-19T11:59:47;97191.41;;;14.67;100.00
55914;BME280;58179;48.776;9.124;2023-11-19T12:02:15;97169.34;;;14.61;100.00
55914;BME280;58179;48.776;9.124;2023-11-19T12:04:43;97161.44;;;14.51;100.00
55914;BME280;58179;48.776;9.124;2023-11-19T12:07:15;97177.72;;;14.50;100.00
55914;BME280;58179;48.776;9.124;2023-11-19T12:09:42;97174.28;;;14.49;100.00
55914;BME280;58179;48.776;9.124;2023-11-19T12:12:19;97182.53;;;15.00;100.00
55914;BME280;58179;48.776;9.124;2023-11-19T12:15:06;97175.41;;;15.38;100.00
55914;BME280;58179;48.776;9.124;2023-11-19T12:17:44;97156.94;;;15.23;100.00
55914;BME280;58179;48.776;9.124;2023-11-19T12:20:13;97162.72;;;15.06;100.00
55914;BME280;58179;48.776;9.124;2023-11-19T12:22:41;97171.69;;;14.92;100.00
55914;BME280;58179;48.776;9.124;2023-11-19T12:25:09;97170.22;;;14.81;100.00
55914;BME280;58179;48.776;9.124;2023-11-19T12:27:36;97183.22;;;14.87;100.00
55914;BME280;58179;48.776;9.124;2023-11-19T12:30:02;97165.28;;;14.93;100.00
55914;BME280;58179;48.776;9.124;2023-11-19T12:32:38;97137.72;;;15.02;100.00
55914;BME280;58179;48.776;9.124;2023-11-19T12:35:09;97141.38;;;15.49;100.00
55914;BME280;58179;48.776;9.124;2023-11-19T12:37:42;97120.75;;;15.92;100.00
55914;BME280;58179;48.776;9.124;2023-11-19T12:40:16;97117.41;;;15.68;100.00
55914;BME280;58179;48.776;9.124;2023-11-19T12:42:43;97125.09;;;15.32;100.00
55914;BME280;58179;48.776;9.124;2023-11-19T12:45:10;97122.81;;;15.01;100.00
55914;BME280;58179;48.776;9.124;2023-11-19T12:47:39;97131.97;;;14.95;100.00
55914;BME280;58179;48.776;9.124;2023-11-19T12:50:07;97126.66;;;14.66;100.00
55914;BME280;58179;48.776;9.124;2023-11-19T12:52:34;97126.63;;;14.95;100.00
55914;BME280;58179;48.776;9.124;2023-11-19T12:55:02;97130.38;;;15.56;100.00
55914;BME280;58179;48.776;9.124;2023-11-19T12:57:37;97123.66;;;15.58;100.00
55914;BME280;58179;48.776;9.124;2023-11-19T13:00:04;97130.69;;;15.54;100.00
55914;BME280;58179;48.776;9.124;2023-11-19T13:02:46;97125.09;;;15.32;100.00